sensor_id;sensor_type;location;lat;lon;timestamp;P1;durP1;ratioP1;P2;durP2;ratioP2
52186;SDS011;38161;53.020;6.598;2023-04-25T00:01:24;18.85;;;5.28;;
52186;SDS011;38161;53.020;6.598;2023-04-25T00:03:50;30.03;;;5.67;;
52186;SDS011;38161;53.020;6.598;2023-04-25T00:06:16;16.50;;;5.38;;
52186;SDS011;38161;53.020;6.598;2023-04-25T00:11:08;22.70;;;4.95;;
52186;SDS011;38161;53.020;6.598;2023-04-25T00:13:34;19.07;;;5.13;;
52186;SDS011;38161;53.020;6.598;2023-04-25T00:16:00;19.67;;;5.30;;
52186;SDS011;38161;53.020;6.598;2023-04-25T00:18:27;20.20;;;5.80;;
52186;SDS011;38161;53.020;6.598;2023-04-25T00:20:54;27.23;;;4.63;;
52186;SDS011;38161;53.020;6.598;2023-04-25T00:23:20;22.08;;;4.88;;
52186;SDS011;38161;53.020;6.598;2023-04-25T00:25:47;20.92;;;4.43;;
52186;SDS011;38161;53.020;6.598;2023-04-25T00:28:14;21.58;;;5.05;;
52186;SDS011;38161;53.020;6.598;2023-04-25T00:30:40;23.00;;;4.78;;
52186;SDS011;38161;53.020;6.598;2023-04-25T00:33:07;26.73;;;5.47;;
52186;SDS011;38161;53.020;6.598;2023-04-25T00:35:34;18.40;;;4.78;;
52186;SDS011;38161;53.020;6.598;2023-04-25T00:38:00;23.33;;;5.22;;
52186;SDS011;38161;53.020;6.598;2023-04-25T00:40:26;19.98;;;5.30;;
52186;SDS011;38161;53.020;6.598;2023-04-25T00:42:52;22.17;;;5.43;;
52186;SDS011;38161;53.020;6.598;2023-04-25T00:45:18;18.15;;;4.55;;
52186;SDS011;38161;53.020;6.598;2023-04-25T00:47:44;23.45;;;5.10;;
52186;SDS011;38161;53.020;6.598;2023-04-25T00:50:11;19.63;;;4.53;;
52186;SDS011;38161;53.020;6.598;2023-04-25T00:55:05;19.38;;;4.25;;
52186;SDS011;38161;53.020;6.598;2023-04-25T00:57:31;23.95;;;5.03;;
52186;SDS011;38161;53.020;6.598;2023-04-25T00:59:57;19.90;;;5.60;;
52186;SDS011;38161;53.020;6.598;2023-04-25T01:02:24;20.90;;;4.82;;
52186;SDS011;38161;53.020;6.598;2023-04-25T01:04:52;21.55;;;4.32;;
52186;SDS011;38161;53.020;6.598;2023-04-25T01:07:18;20.70;;;5.25;;
52186;SDS011;38161;53.020;6.598;2023-04-25T01:09:44;19.30;;;4.85;;
52186;SDS011;38161;53.020;6.598;2023-04-25T01:12:10;16.30;;;4.70;;
52186;SDS011;38161;53.020;6.598;2023-04-25T01:17:03;24.02;;;4.93;;
52186;SDS011;38161;53.020;6.598;2023-04-25T01:19:29;21.27;;;4.40;;
52186;SDS011;38161;53.020;6.598;2023-04-25T01:21:55;19.85;;;4.13;;
52186;SDS011;38161;53.020;6.598;2023-04-25T01:24:22;15.07;;;3.90;;
52186;SDS011;38161;53.020;6.598;2023-04-25T01:26:48;20.13;;;4.15;;
52186;SDS011;38161;53.020;6.598;2023-04-25T01:29:17;14.45;;;3.38;;
52186;SDS011;38161;53.020;6.598;2023-04-25T01:31:44;16.30;;;4.15;;
52186;SDS011;38161;53.020;6.598;2023-04-25T01:34:11;23.95;;;4.13;;
52186;SDS011;38161;53.020;6.598;2023-04-25T01:36:37;16.90;;;4.13;;
52186;SDS011;38161;53.020;6.598;2023-04-25T01:39:03;18.13;;;3.88;;
52186;SDS011;38161;53.020;6.598;2023-04-25T01:41:28;16.77;;;4.20;;
52186;SDS011;38161;53.020;6.598;2023-04-25T01:43:54;21.20;;;4.20;;
52186;SDS011;38161;53.020;6.598;2023-04-25T01:46:21;17.38;;;3.97;;
52186;SDS011;38161;53.020;6.598;2023-04-25T01:48:47;22.58;;;4.05;;
52186;SDS011;38161;53.020;6.598;2023-04-25T01:51:13;18.02;;;3.90;;
52186;SDS011;38161;53.020;6.598;2023-04-25T01:53:38;18.93;;;3.90;;
52186;SDS011;38161;53.020;6.598;2023-04-25T01:56:05;20.00;;;3.53;;
52186;SDS011;38161;53.020;6.598;2023-04-25T01:58:31;18.30;;;3.90;;
52186;SDS011;38161;53.020;6.598;2023-04-25T02:00:56;23.67;;;4.47;;
52186;SDS011;38161;53.020;6.598;2023-04-25T02:03:22;13.20;;;3.60;;
52186;SDS011;38161;53.020;6.598;2023-04-25T02:05:48;18.20;;;3.35;;
52186;SDS011;38161;53.020;6.598;2023-04-25T02:08:15;18.27;;;3.78;;
52186;SDS011;38161;53.020;6.598;2023-04-25T02:10:42;15.25;;;3.90;;
52186;SDS011;38161;53.020;6.598;2023-04-25T02:13:08;24.53;;;4.67;;
52186;SDS011;38161;53.020;6.598;2023-04-25T02:15:33;15.60;;;3.63;;
52186;SDS011;38161;53.020;6.598;2023-04-25T02:18:00;15.23;;;3.78;;
52186;SDS011;38161;53.020;6.598;2023-04-25T02:20:26;30.20;;;3.67;;
52186;SDS011;38161;53.020;6.598;2023-04-25T02:22:52;15.73;;;3.60;;
52186;SDS011;38161;53.020;6.598;2023-04-25T02:25:20;14.63;;;3.60;;
52186;SDS011;38161;53.020;6.598;2023-04-25T02:27:46;12.82;;;3.25;;
52186;SDS011;38161;53.020;6.598;2023-04-25T02:30:12;18.83;;;4.43;;
52186;SDS011;38161;53.020;6.598;2023-04-25T02:32:38;16.38;;;3.50;;
52186;SDS011;38161;53.020;6.598;2023-04-25T02:35:05;14.18;;;3.58;;
52186;SDS011;38161;53.020;6.598;2023-04-25T02:37:31;18.83;;;3.67;;
52186;SDS011;38161;53.020;6.598;2023-04-25T02:42:23;17.95;;;3.55;;
52186;SDS011;38161;53.020;6.598;2023-04-25T02:44:49;16.60;;;3.40;;
52186;SDS011;38161;53.020;6.598;2023-04-25T02:47:15;16.92;;;3.95;;
52186;SDS011;38161;53.020;6.598;2023-04-25T02:49:41;20.30;;;3.90;;
52186;SDS011;38161;53.020;6.598;2023-04-25T02:52:07;18.17;;;4.03;;
52186;SDS011;38161;53.020;6.598;2023-04-25T02:54:32;13.80;;;3.17;;
52186;SDS011;38161;53.020;6.598;2023-04-25T02:56:58;23.53;;;3.77;;
52186;SDS011;38161;53.020;6.598;2023-04-25T02:59:24;21.83;;;4.00;;
52186;SDS011;38161;53.020;6.598;2023-04-25T03:01:49;15.93;;;3.63;;
52186;SDS011;38161;53.020;6.598;2023-04-25T03:04:15;27.63;;;4.70;;
52186;SDS011;38161;53.020;6.598;2023-04-25T03:06:41;18.50;;;3.17;;
52186;SDS011;38161;53.020;6.598;2023-04-25T03:09:07;17.10;;;3.33;;
52186;SDS011;38161;53.020;6.598;2023-04-25T03:11:33;15.73;;;3.40;;
52186;SDS011;38161;53.020;6.598;2023-04-25T03:13:58;19.93;;;3.57;;
52186;SDS011;38161;53.020;6.598;2023-04-25T03:16:24;19.75;;;3.33;;
52186;SDS011;38161;53.020;6.598;2023-04-25T03:18:50;20.70;;;3.00;;
52186;SDS011;38161;53.020;6.598;2023-04-25T03:21:16;14.80;;;3.03;;
52186;SDS011;38161;53.020;6.598;2023-04-25T03:23:42;13.80;;;2.83;;
52186;SDS011;38161;53.020;6.598;2023-04-25T03:26:07;15.52;;;3.33;;
52186;SDS011;38161;53.020;6.598;2023-04-25T03:28:33;13.33;;;2.53;;
52186;SDS011;38161;53.020;6.598;2023-04-25T03:30:59;15.93;;;3.17;;
52186;SDS011;38161;53.020;6.598;2023-04-25T03:33:25;23.53;;;3.43;;
52186;SDS011;38161;53.020;6.598;2023-04-25T03:35:51;11.67;;;2.30;;
52186;SDS011;38161;53.020;6.598;2023-04-25T03:38:16;14.07;;;2.38;;
52186;SDS011;38161;53.020;6.598;2023-04-25T03:40:42;16.98;;;3.03;;
52186;SDS011;38161;53.020;6.598;2023-04-25T03:43:08;10.93;;;2.85;;
52186;SDS011;38161;53.020;6.598;2023-04-25T03:45:34;11.43;;;2.92;;
52186;SDS011;38161;53.020;6.598;2023-04-25T03:48:00;8.53;;;2.33;;
52186;SDS011;38161;53.020;6.598;2023-04-25T03:50:26;13.50;;;2.47;;
52186;SDS011;38161;53.020;6.598;2023-04-25T03:52:51;5.63;;;2.00;;
52186;SDS011;38161;53.020;6.598;2023-04-25T03:55:17;13.27;;;2.97;;
52186;SDS011;38161;53.020;6.598;2023-04-25T03:57:43;10.25;;;2.45;;
52186;SDS011;38161;53.020;6.598;2023-04-25T04:00:09;13.52;;;2.67;;
52186;SDS011;38161;53.020;6.598;2023-04-25T04:02:35;16.85;;;2.47;;
52186;SDS011;38161;53.020;6.598;2023-04-25T04:05:03;7.40;;;2.17;;
52186;SDS011;38161;53.020;6.598;2023-04-25T04:07:29;10.05;;;2.20;;
52186;SDS011;38161;53.020;6.598;2023-04-25T04:09:54;8.68;;;2.38;;
52186;SDS011;38161;53.020;6.598;2023-04-25T04:12:20;9.93;;;2.10;;
52186;SDS011;38161;53.020;6.598;2023-04-25T04:14:46;10.87;;;2.47;;
52186;SDS011;38161;53.020;6.598;2023-04-25T04:17:12;10.70;;;1.80;;
52186;SDS011;38161;53.020;6.598;2023-04-25T04:19:37;14.57;;;3.20;;
52186;SDS011;38161;53.020;6.598;2023-04-25T04:25:42;7.32;;;1.80;;
52186;SDS011;38161;53.020;6.598;2023-04-25T04:28:08;10.75;;;1.95;;
52186;SDS011;38161;53.020;6.598;2023-04-25T04:30:34;11.50;;;2.33;;
52186;SDS011;38161;53.020;6.598;2023-04-25T04:33:02;6.95;;;1.90;;
52186;SDS011;38161;53.020;6.598;2023-04-25T04:35:28;12.25;;;2.35;;
52186;SDS011;38161;53.020;6.598;2023-04-25T04:37:54;9.10;;;2.45;;
52186;SDS011;38161;53.020;6.598;2023-04-25T04:40:20;9.98;;;2.08;;
52186;SDS011;38161;53.020;6.598;2023-04-25T04:42:46;6.88;;;1.85;;
52186;SDS011;38161;53.020;6.598;2023-04-25T04:45:13;10.25;;;2.30;;
52186;SDS011;38161;53.020;6.598;2023-04-25T04:47:39;8.07;;;2.22;;
52186;SDS011;38161;53.020;6.598;2023-04-25T04:50:08;12.60;;;1.90;;
52186;SDS011;38161;53.020;6.598;2023-04-25T04:52:38;5.63;;;1.95;;
52186;SDS011;38161;53.020;6.598;2023-04-25T04:55:04;7.75;;;1.75;;
52186;SDS011;38161;53.020;6.598;2023-04-25T04:57:31;7.10;;;1.90;;
52186;SDS011;38161;53.020;6.598;2023-04-25T04:59:58;10.25;;;2.08;;
52186;SDS011;38161;53.020;6.598;2023-04-25T05:02:24;13.57;;;3.03;;
52186;SDS011;38161;53.020;6.598;2023-04-25T05:04:50;8.07;;;2.20;;
52186;SDS011;38161;53.020;6.598;2023-04-25T05:09:43;6.30;;;2.55;;
52186;SDS011;38161;53.020;6.598;2023-04-25T05:12:09;8.75;;;1.83;;
52186;SDS011;38161;53.020;6.598;2023-04-25T05:14:35;12.90;;;2.22;;
52186;SDS011;38161;53.020;6.598;2023-04-25T05:17:00;7.70;;;2.20;;
52186;SDS011;38161;53.020;6.598;2023-04-25T05:19:29;9.10;;;2.10;;
52186;SDS011;38161;53.020;6.598;2023-04-25T05:21:55;9.85;;;1.83;;
52186;SDS011;38161;53.020;6.598;2023-04-25T05:24:21;13.70;;;2.53;;
52186;SDS011;38161;53.020;6.598;2023-04-25T05:26:47;8.03;;;2.23;;
52186;SDS011;38161;53.020;6.598;2023-04-25T05:29:13;8.52;;;1.85;;
52186;SDS011;38161;53.020;6.598;2023-04-25T05:31:39;10.48;;;2.25;;
52186;SDS011;38161;53.020;6.598;2023-04-25T05:34:04;12.73;;;2.17;;
52186;SDS011;38161;53.020;6.598;2023-04-25T05:36:30;11.47;;;2.50;;
52186;SDS011;38161;53.020;6.598;2023-04-25T05:38:57;10.63;;;1.92;;
52186;SDS011;38161;53.020;6.598;2023-04-25T05:41:23;11.97;;;2.57;;
52186;SDS011;38161;53.020;6.598;2023-04-25T05:43:49;13.83;;;2.97;;
52186;SDS011;38161;53.020;6.598;2023-04-25T05:46:15;9.80;;;1.80;;
52186;SDS011;38161;53.020;6.598;2023-04-25T05:48:43;9.93;;;2.22;;
52186;SDS011;38161;53.020;6.598;2023-04-25T05:51:09;7.40;;;2.17;;
52186;SDS011;38161;53.020;6.598;2023-04-25T05:53:35;11.00;;;2.57;;
52186;SDS011;38161;53.020;6.598;2023-04-25T05:56:01;14.67;;;2.43;;
52186;SDS011;38161;53.020;6.598;2023-04-25T05:58:27;13.55;;;2.13;;
52186;SDS011;38161;53.020;6.598;2023-04-25T06:00:52;9.23;;;2.40;;
52186;SDS011;38161;53.020;6.598;2023-04-25T06:03:18;11.70;;;2.13;;
52186;SDS011;38161;53.020;6.598;2023-04-25T06:05:44;14.07;;;2.40;;
52186;SDS011;38161;53.020;6.598;2023-04-25T06:08:09;7.20;;;1.87;;
52186;SDS011;38161;53.020;6.598;2023-04-25T06:10:36;11.57;;;2.00;;
52186;SDS011;38161;53.020;6.598;2023-04-25T06:13:02;12.27;;;2.35;;
52186;SDS011;38161;53.020;6.598;2023-04-25T06:15:28;10.43;;;2.08;;
52186;SDS011;38161;53.020;6.598;2023-04-25T06:17:55;11.27;;;2.33;;
52186;SDS011;38161;53.020;6.598;2023-04-25T06:20:21;10.57;;;2.20;;
52186;SDS011;38161;53.020;6.598;2023-04-25T06:22:49;13.38;;;2.65;;
52186;SDS011;38161;53.020;6.598;2023-04-25T06:25:15;14.50;;;2.58;;
52186;SDS011;38161;53.020;6.598;2023-04-25T06:27:41;14.13;;;2.33;;
52186;SDS011;38161;53.020;6.598;2023-04-25T06:30:07;10.27;;;2.93;;
52186;SDS011;38161;53.020;6.598;2023-04-25T06:32:33;9.32;;;2.30;;
52186;SDS011;38161;53.020;6.598;2023-04-25T06:34:59;8.38;;;2.05;;
52186;SDS011;38161;53.020;6.598;2023-04-25T06:37:25;13.40;;;2.33;;
52186;SDS011;38161;53.020;6.598;2023-04-25T06:39:51;12.98;;;2.40;;
52186;SDS011;38161;53.020;6.598;2023-04-25T06:42:17;17.67;;;2.40;;
52186;SDS011;38161;53.020;6.598;2023-04-25T06:44:43;11.87;;;3.27;;
52186;SDS011;38161;53.020;6.598;2023-04-25T06:47:09;9.05;;;2.28;;
52186;SDS011;38161;53.020;6.598;2023-04-25T06:49:34;12.00;;;1.97;;
52186;SDS011;38161;53.020;6.598;2023-04-25T06:52:01;9.02;;;2.10;;
52186;SDS011;38161;53.020;6.598;2023-04-25T06:54:28;14.80;;;2.05;;
52186;SDS011;38161;53.020;6.598;2023-04-25T06:59:21;11.80;;;1.70;;
52186;SDS011;38161;53.020;6.598;2023-04-25T07:01:46;12.07;;;2.00;;
52186;SDS011;38161;53.020;6.598;2023-04-25T07:04:12;13.90;;;2.85;;
52186;SDS011;38161;53.020;6.598;2023-04-25T07:06:38;10.80;;;1.90;;
52186;SDS011;38161;53.020;6.598;2023-04-25T07:09:08;13.63;;;1.70;;
52186;SDS011;38161;53.020;6.598;2023-04-25T07:11:35;8.77;;;2.00;;
52186;SDS011;38161;53.020;6.598;2023-04-25T07:14:01;11.27;;;2.15;;
52186;SDS011;38161;53.020;6.598;2023-04-25T07:16:27;9.77;;;2.30;;
52186;SDS011;38161;53.020;6.598;2023-04-25T07:18:53;11.83;;;1.97;;
52186;SDS011;38161;53.020;6.598;2023-04-25T07:21:19;12.00;;;2.17;;
52186;SDS011;38161;53.020;6.598;2023-04-25T07:23:45;9.65;;;1.65;;
52186;SDS011;38161;53.020;6.598;2023-04-25T07:26:11;6.60;;;1.75;;
52186;SDS011;38161;53.020;6.598;2023-04-25T07:28:37;10.65;;;1.92;;
52186;SDS011;38161;53.020;6.598;2023-04-25T07:31:03;9.10;;;1.83;;
52186;SDS011;38161;53.020;6.598;2023-04-25T07:33:29;6.23;;;1.70;;
52186;SDS011;38161;53.020;6.598;2023-04-25T07:35:54;9.57;;;1.77;;
52186;SDS011;38161;53.020;6.598;2023-04-25T07:38:21;8.18;;;1.60;;
52186;SDS011;38161;53.020;6.598;2023-04-25T07:40:49;6.05;;;1.40;;
52186;SDS011;38161;53.020;6.598;2023-04-25T07:43:15;7.53;;;1.70;;
52186;SDS011;38161;53.020;6.598;2023-04-25T07:45:42;6.53;;;1.80;;
52186;SDS011;38161;53.020;6.598;2023-04-25T07:48:08;8.95;;;1.67;;
52186;SDS011;38161;53.020;6.598;2023-04-25T07:50:35;8.57;;;1.75;;
52186;SDS011;38161;53.020;6.598;2023-04-25T07:53:01;9.30;;;2.17;;
52186;SDS011;38161;53.020;6.598;2023-04-25T07:55:27;11.27;;;1.98;;
52186;SDS011;38161;53.020;6.598;2023-04-25T07:57:53;7.63;;;1.58;;
52186;SDS011;38161;53.020;6.598;2023-04-25T08:00:19;5.20;;;1.20;;
52186;SDS011;38161;53.020;6.598;2023-04-25T08:02:45;10.07;;;1.45;;
52186;SDS011;38161;53.020;6.598;2023-04-25T08:05:10;7.90;;;1.40;;
52186;SDS011;38161;53.020;6.598;2023-04-25T08:07:40;7.63;;;1.65;;
52186;SDS011;38161;53.020;6.598;2023-04-25T08:10:07;6.47;;;1.38;;
52186;SDS011;38161;53.020;6.598;2023-04-25T08:12:33;10.02;;;1.48;;
52186;SDS011;38161;53.020;6.598;2023-04-25T08:14:59;7.70;;;1.20;;
52186;SDS011;38161;53.020;6.598;2023-04-25T08:17:25;7.13;;;1.70;;
52186;SDS011;38161;53.020;6.598;2023-04-25T08:19:50;4.97;;;1.30;;
52186;SDS011;38161;53.020;6.598;2023-04-25T08:22:16;5.22;;;1.27;;
52186;SDS011;38161;53.020;6.598;2023-04-25T08:24:42;6.67;;;1.57;;
52186;SDS011;38161;53.020;6.598;2023-04-25T08:27:08;4.67;;;1.20;;
52186;SDS011;38161;53.020;6.598;2023-04-25T08:29:34;5.05;;;1.40;;
52186;SDS011;38161;53.020;6.598;2023-04-25T08:32:00;10.98;;;1.13;;
52186;SDS011;38161;53.020;6.598;2023-04-25T08:34:26;6.95;;;1.75;;
52186;SDS011;38161;53.020;6.598;2023-04-25T08:36:52;11.23;;;1.60;;
52186;SDS011;38161;53.020;6.598;2023-04-25T08:39:18;7.30;;;1.73;;
52186;SDS011;38161;53.020;6.598;2023-04-25T08:41:44;9.53;;;1.07;;
52186;SDS011;38161;53.020;6.598;2023-04-25T08:44:10;5.85;;;1.15;;
52186;SDS011;38161;53.020;6.598;2023-04-25T08:46:40;6.57;;;1.10;;
52186;SDS011;38161;53.020;6.598;2023-04-25T08:49:06;6.43;;;0.98;;
52186;SDS011;38161;53.020;6.598;2023-04-25T08:51:34;4.72;;;0.98;;
52186;SDS011;38161;53.020;6.598;2023-04-25T08:54:11;2.38;;;0.80;;
52186;SDS011;38161;53.020;6.598;2023-04-25T08:56:43;6.65;;;1.10;;
52186;SDS011;38161;53.020;6.598;2023-04-25T08:59:10;8.43;;;1.10;;
52186;SDS011;38161;53.020;6.598;2023-04-25T09:01:37;2.70;;;1.27;;
52186;SDS011;38161;53.020;6.598;2023-04-25T09:04:03;2.63;;;1.03;;
52186;SDS011;38161;53.020;6.598;2023-04-25T09:06:29;3.42;;;0.90;;
52186;SDS011;38161;53.020;6.598;2023-04-25T09:09:05;4.43;;;0.90;;
52186;SDS011;38161;53.020;6.598;2023-04-25T09:11:33;2.33;;;0.70;;
52186;SDS011;38161;53.020;6.598;2023-04-25T09:14:13;6.30;;;1.33;;
52186;SDS011;38161;53.020;6.598;2023-04-25T09:21:57;2.75;;;0.90;;
52186;SDS011;38161;53.020;6.598;2023-04-25T09:27:08;4.82;;;1.63;;
52186;SDS011;38161;53.020;6.598;2023-04-25T09:29:42;7.10;;;1.10;;
52186;SDS011;38161;53.020;6.598;2023-04-25T09:35:06;4.53;;;1.20;;
52186;SDS011;38161;53.020;6.598;2023-04-25T09:37:33;5.10;;;1.13;;
52186;SDS011;38161;53.020;6.598;2023-04-25T09:40:00;2.90;;;0.90;;
52186;SDS011;38161;53.020;6.598;2023-04-25T09:42:31;5.53;;;1.33;;
52186;SDS011;38161;53.020;6.598;2023-04-25T09:45:01;6.93;;;1.58;;
52186;SDS011;38161;53.020;6.598;2023-04-25T09:47:27;5.72;;;1.55;;
52186;SDS011;38161;53.020;6.598;2023-04-25T09:49:54;7.68;;;1.40;;
52186;SDS011;38161;53.020;6.598;2023-04-25T09:52:21;7.78;;;1.50;;
52186;SDS011;38161;53.020;6.598;2023-04-25T09:54:49;9.70;;;1.75;;
52186;SDS011;38161;53.020;6.598;2023-04-25T09:57:19;5.15;;;1.33;;
52186;SDS011;38161;53.020;6.598;2023-04-25T09:59:46;8.00;;;1.35;;
52186;SDS011;38161;53.020;6.598;2023-04-25T10:02:14;7.25;;;2.17;;
52186;SDS011;38161;53.020;6.598;2023-04-25T10:04:42;2.28;;;0.90;;
52186;SDS011;38161;53.020;6.598;2023-04-25T10:07:11;2.50;;;1.20;;
52186;SDS011;38161;53.020;6.598;2023-04-25T10:09:38;5.35;;;0.98;;
52186;SDS011;38161;53.020;6.598;2023-04-25T10:12:05;6.28;;;1.40;;
52186;SDS011;38161;53.020;6.598;2023-04-25T10:14:33;4.47;;;1.40;;
52186;SDS011;38161;53.020;6.598;2023-04-25T10:17:00;3.92;;;1.30;;
52186;SDS011;38161;53.020;6.598;2023-04-25T10:19:26;6.97;;;2.28;;
52186;SDS011;38161;53.020;6.598;2023-04-25T10:24:31;6.82;;;1.85;;
52186;SDS011;38161;53.020;6.598;2023-04-25T10:26:57;9.15;;;2.67;;
52186;SDS011;38161;53.020;6.598;2023-04-25T10:29:24;7.07;;;1.73;;
52186;SDS011;38161;53.020;6.598;2023-04-25T10:31:50;9.90;;;2.17;;
52186;SDS011;38161;53.020;6.598;2023-04-25T10:34:17;7.05;;;1.90;;
52186;SDS011;38161;53.020;6.598;2023-04-25T10:36:49;7.75;;;1.65;;
52186;SDS011;38161;53.020;6.598;2023-04-25T10:39:24;4.97;;;1.55;;
52186;SDS011;38161;53.020;6.598;2023-04-25T10:41:58;5.53;;;1.70;;
52186;SDS011;38161;53.020;6.598;2023-04-25T10:44:28;12.55;;;2.20;;
52186;SDS011;38161;53.020;6.598;2023-04-25T10:46:55;5.15;;;1.25;;
52186;SDS011;38161;53.020;6.598;2023-04-25T10:49:35;7.95;;;1.65;;
52186;SDS011;38161;53.020;6.598;2023-04-25T10:52:14;5.07;;;1.30;;
52186;SDS011;38161;53.020;6.598;2023-04-25T10:57:53;5.63;;;1.27;;
52186;SDS011;38161;53.020;6.598;2023-04-25T11:00:17;8.52;;;1.65;;
52186;SDS011;38161;53.020;6.598;2023-04-25T11:02:51;7.50;;;1.98;;
52186;SDS011;38161;53.020;6.598;2023-04-25T11:05:19;11.10;;;1.63;;
52186;SDS011;38161;53.020;6.598;2023-04-25T11:07:57;8.10;;;1.70;;
52186;SDS011;38161;53.020;6.598;2023-04-25T11:10:27;4.40;;;1.05;;
52186;SDS011;38161;53.020;6.598;2023-04-25T11:12:58;7.43;;;1.75;;
52186;SDS011;38161;53.020;6.598;2023-04-25T11:15:25;11.88;;;1.92;;
52186;SDS011;38161;53.020;6.598;2023-04-25T11:17:54;10.00;;;1.60;;
52186;SDS011;38161;53.020;6.598;2023-04-25T11:20:21;8.20;;;1.40;;
52186;SDS011;38161;53.020;6.598;2023-04-25T11:22:47;6.65;;;1.60;;
52186;SDS011;38161;53.020;6.598;2023-04-25T11:25:14;6.45;;;1.73;;
52186;SDS011;38161;53.020;6.598;2023-04-25T11:27:51;7.50;;;1.95;;
52186;SDS011;38161;53.020;6.598;2023-04-25T11:30:16;7.03;;;1.70;;
52186;SDS011;38161;53.020;6.598;2023-04-25T11:32:43;9.32;;;1.48;;
52186;SDS011;38161;53.020;6.598;2023-04-25T11:35:09;7.47;;;1.75;;
52186;SDS011;38161;53.020;6.598;2023-04-25T11:37:35;8.32;;;2.00;;
52186;SDS011;38161;53.020;6.598;2023-04-25T11:40:02;5.53;;;1.48;;
52186;SDS011;38161;53.020;6.598;2023-04-25T11:42:31;7.88;;;1.60;;
52186;SDS011;38161;53.020;6.598;2023-04-25T11:44:58;8.70;;;1.55;;
52186;SDS011;38161;53.020;6.598;2023-04-25T11:47:31;7.60;;;1.23;;
52186;SDS011;38161;53.020;6.598;2023-04-25T11:49:58;9.18;;;1.60;;
52186;SDS011;38161;53.020;6.598;2023-04-25T11:52:34;13.93;;;2.03;;
52186;SDS011;38161;53.020;6.598;2023-04-25T11:55:03;10.45;;;2.13;;
52186;SDS011;38161;53.020;6.598;2023-04-25T11:57:32;6.30;;;1.63;;
52186;SDS011;38161;53.020;6.598;2023-04-25T12:02:36;5.43;;;1.02;;
52186;SDS011;38161;53.020;6.598;2023-04-25T12:05:05;3.28;;;1.40;;
52186;SDS011;38161;53.020;6.598;2023-04-25T12:07:33;6.00;;;1.38;;
52186;SDS011;38161;53.020;6.598;2023-04-25T12:10:03;6.45;;;1.67;;
52186;SDS011;38161;53.020;6.598;2023-04-25T12:12:35;9.20;;;1.42;;
52186;SDS011;38161;53.020;6.598;2023-04-25T12:15:11;4.07;;;1.10;;
52186;SDS011;38161;53.020;6.598;2023-04-25T12:17:40;6.25;;;1.23;;
52186;SDS011;38161;53.020;6.598;2023-04-25T12:20:11;3.65;;;1.13;;
52186;SDS011;38161;53.020;6.598;2023-04-25T12:22:43;6.38;;;1.00;;
52186;SDS011;38161;53.020;6.598;2023-04-25T12:33:18;5.78;;;1.10;;
52186;SDS011;38161;53.020;6.598;2023-04-25T12:35:44;6.88;;;1.20;;
52186;SDS011;38161;53.020;6.598;2023-04-25T12:38:10;7.50;;;1.40;;
52186;SDS011;38161;53.020;6.598;2023-04-25T12:40:36;6.85;;;1.27;;
52186;SDS011;38161;53.020;6.598;2023-04-25T12:43:02;5.70;;;1.30;;
52186;SDS011;38161;53.020;6.598;2023-04-25T12:45:28;9.75;;;1.20;;
52186;SDS011;38161;53.020;6.598;2023-04-25T12:47:53;5.78;;;1.08;;
52186;SDS011;38161;53.020;6.598;2023-04-25T12:50:19;4.90;;;1.00;;
52186;SDS011;38161;53.020;6.598;2023-04-25T12:52:45;7.93;;;1.50;;
52186;SDS011;38161;53.020;6.598;2023-04-25T12:55:11;8.07;;;1.20;;
52186;SDS011;38161;53.020;6.598;2023-04-25T12:57:36;11.85;;;1.70;;
52186;SDS011;38161;53.020;6.598;2023-04-25T13:00:02;7.65;;;1.58;;
52186;SDS011;38161;53.020;6.598;2023-04-25T13:02:29;6.75;;;1.15;;
52186;SDS011;38161;53.020;6.598;2023-04-25T13:04:55;6.13;;;1.40;;
52186;SDS011;38161;53.020;6.598;2023-04-25T13:07:21;11.88;;;1.30;;
52186;SDS011;38161;53.020;6.598;2023-04-25T13:09:46;12.20;;;1.70;;
52186;SDS011;38161;53.020;6.598;2023-04-25T13:12:12;7.53;;;1.48;;
52186;SDS011;38161;53.020;6.598;2023-04-25T13:14:38;6.00;;;1.40;;
52186;SDS011;38161;53.020;6.598;2023-04-25T13:17:04;4.93;;;1.17;;
52186;SDS011;38161;53.020;6.598;2023-04-25T13:19:29;9.63;;;1.80;;
52186;SDS011;38161;53.020;6.598;2023-04-25T13:21:55;8.57;;;1.35;;
52186;SDS011;38161;53.020;6.598;2023-04-25T13:24:21;8.45;;;1.85;;
52186;SDS011;38161;53.020;6.598;2023-04-25T13:26:47;4.67;;;1.30;;
52186;SDS011;38161;53.020;6.598;2023-04-25T13:29:13;3.58;;;1.10;;
52186;SDS011;38161;53.020;6.598;2023-04-25T13:31:39;5.85;;;1.75;;
52186;SDS011;38161;53.020;6.598;2023-04-25T13:34:05;5.55;;;1.33;;
52186;SDS011;38161;53.020;6.598;2023-04-25T13:36:30;6.07;;;1.30;;
52186;SDS011;38161;53.020;6.598;2023-04-25T13:38:56;5.57;;;1.52;;
52186;SDS011;38161;53.020;6.598;2023-04-25T13:41:22;3.10;;;1.05;;
52186;SDS011;38161;53.020;6.598;2023-04-25T13:43:48;9.90;;;1.92;;
52186;SDS011;38161;53.020;6.598;2023-04-25T13:46:14;6.20;;;1.40;;
52186;SDS011;38161;53.020;6.598;2023-04-25T13:51:11;6.88;;;1.35;;
52186;SDS011;38161;53.020;6.598;2023-04-25T13:53:37;6.00;;;1.55;;
52186;SDS011;38161;53.020;6.598;2023-04-25T13:58:30;7.32;;;1.70;;
52186;SDS011;38161;53.020;6.598;2023-04-25T14:00:57;7.90;;;1.80;;
52186;SDS011;38161;53.020;6.598;2023-04-25T14:03:23;7.10;;;1.35;;
52186;SDS011;38161;53.020;6.598;2023-04-25T14:05:49;5.85;;;1.65;;
52186;SDS011;38161;53.020;6.598;2023-04-25T14:08:16;7.18;;;1.42;;
52186;SDS011;38161;53.020;6.598;2023-04-25T14:10:41;5.67;;;1.33;;
52186;SDS011;38161;53.020;6.598;2023-04-25T14:13:07;8.30;;;1.55;;
52186;SDS011;38161;53.020;6.598;2023-04-25T14:15:33;6.78;;;1.52;;
52186;SDS011;38161;53.020;6.598;2023-04-25T14:17:59;10.07;;;1.73;;
52186;SDS011;38161;53.020;6.598;2023-04-25T14:20:26;9.93;;;1.98;;
52186;SDS011;38161;53.020;6.598;2023-04-25T14:22:51;9.68;;;1.90;;
52186;SDS011;38161;53.020;6.598;2023-04-25T14:25:19;6.32;;;1.70;;
52186;SDS011;38161;53.020;6.598;2023-04-25T14:27:46;7.05;;;2.05;;
52186;SDS011;38161;53.020;6.598;2023-04-25T14:30:15;8.02;;;1.63;;
52186;SDS011;38161;53.020;6.598;2023-04-25T14:32:41;6.22;;;1.65;;
52186;SDS011;38161;53.020;6.598;2023-04-25T14:35:07;4.93;;;1.85;;
52186;SDS011;38161;53.020;6.598;2023-04-25T14:37:34;9.95;;;2.00;;
52186;SDS011;38161;53.020;6.598;2023-04-25T14:40:00;4.90;;;1.42;;
52186;SDS011;38161;53.020;6.598;2023-04-25T14:42:28;4.67;;;1.40;;
52186;SDS011;38161;53.020;6.598;2023-04-25T14:44:54;11.48;;;1.70;;
52186;SDS011;38161;53.020;6.598;2023-04-25T14:47:20;12.07;;;1.73;;
52186;SDS011;38161;53.020;6.598;2023-04-25T14:49:45;8.17;;;1.73;;
52186;SDS011;38161;53.020;6.598;2023-04-25T14:52:16;11.55;;;2.40;;
52186;SDS011;38161;53.020;6.598;2023-04-25T14:54:42;5.55;;;2.10;;
52186;SDS011;38161;53.020;6.598;2023-04-25T14:57:07;9.48;;;1.77;;
52186;SDS011;38161;53.020;6.598;2023-04-25T14:59:33;10.47;;;2.23;;
52186;SDS011;38161;53.020;6.598;2023-04-25T15:01:59;5.75;;;1.88;;
52186;SDS011;38161;53.020;6.598;2023-04-25T15:04:25;6.90;;;1.40;;
52186;SDS011;38161;53.020;6.598;2023-04-25T15:06:50;7.85;;;1.55;;
52186;SDS011;38161;53.020;6.598;2023-04-25T15:09:17;7.57;;;1.70;;
52186;SDS011;38161;53.020;6.598;2023-04-25T15:11:42;9.70;;;1.80;;
52186;SDS011;38161;53.020;6.598;2023-04-25T15:14:08;4.50;;;1.48;;
52186;SDS011;38161;53.020;6.598;2023-04-25T15:16:34;9.40;;;1.80;;
52186;SDS011;38161;53.020;6.598;2023-04-25T15:19:00;12.00;;;2.03;;
52186;SDS011;38161;53.020;6.598;2023-04-25T15:21:29;12.15;;;1.50;;
52186;SDS011;38161;53.020;6.598;2023-04-25T15:23:58;8.60;;;1.42;;
52186;SDS011;38161;53.020;6.598;2023-04-25T15:26:23;10.40;;;1.93;;
52186;SDS011;38161;53.020;6.598;2023-04-25T15:28:50;10.27;;;1.83;;